Nebo, Illinois
Current Conditions -  °F | °C
As of 11:15 PM on Saturday 20 Dec 2014 (Local Time) from KPPQ Reporting Station
Overcast Overcast  
Wind Chill: 33°   Ceiling: 3300
Heat Index: 37°   Visibility: 7mi
Dew Point: 34°   Wind: 6mph
Humidity: 88%   Direction: 150°SSE
Pressure: 30.22"   Gusts: NA
Location:  39.44°N, 90.79°W
Report Text: KPPQ 210515Z AUTO 15005KT 7SM OVC033 03/01 A3022 RMK AO2 T00300012
Loading
Personal Weather Stations






























Interactive Weather Map New forecast layout! Learn more

10-Day Weather Forecast

Advertisements
Track Severe Weather on mobile